createdAt,value
2023-05-09T00:01:15.924Z,10.68
2023-05-09T00:04:01.824Z,10.62
2023-05-09T00:06:47.216Z,10.58
2023-05-09T00:09:32.359Z,10.58
2023-05-09T00:12:17.705Z,10.58
2023-05-09T00:15:03.528Z,10.58
2023-05-09T00:17:50.489Z,10.54
2023-05-09T00:20:36.068Z,10.52
2023-05-09T00:23:21.658Z,10.51
2023-05-09T00:26:07.082Z,10.51
2023-05-09T00:28:52.511Z,10.44
2023-05-09T00:31:37.713Z,10.44
2023-05-09T00:34:23.128Z,10.43
2023-05-09T00:37:08.769Z,10.40
2023-05-09T00:39:53.980Z,10.39
2023-05-09T00:42:39.441Z,10.42
2023-05-09T00:45:24.744Z,10.39
2023-05-09T00:48:10.038Z,10.38
2023-05-09T00:50:55.443Z,10.35
2023-05-09T00:53:40.670Z,10.33
2023-05-09T00:56:26.726Z,10.35
2023-05-09T00:59:11.956Z,10.28
2023-05-09T01:01:57.081Z,10.29
2023-05-09T01:04:43.411Z,10.28
2023-05-09T01:08:06.338Z,10.30
2023-05-09T01:11:12.862Z,10.28
2023-05-09T01:14:20.388Z,10.25
2023-05-09T01:17:13.257Z,10.19
2023-05-09T01:20:11.089Z,10.15
2023-05-09T01:23:03.582Z,10.18
2023-05-09T01:26:01.970Z,10.18
2023-05-09T01:29:27.095Z,10.14
2023-05-09T01:32:25.436Z,10.14
2023-05-09T01:35:14.514Z,10.12
2023-05-09T01:38:01.260Z,10.11
2023-05-09T01:40:51.644Z,10.07
2023-05-09T01:43:38.660Z,10.09
2023-05-09T01:46:25.766Z,10.05
2023-05-09T01:49:11.964Z,10.01
2023-05-09T01:51:59.106Z,9.97
2023-05-09T01:54:45.946Z,9.97
2023-05-09T01:57:33.059Z,9.95
2023-05-09T02:00:19.371Z,9.93
2023-05-09T02:03:06.082Z,9.92
2023-05-09T02:05:52.405Z,9.92
2023-05-09T02:08:38.565Z,9.92
2023-05-09T02:11:23.652Z,9.91
2023-05-09T02:14:09.105Z,9.91
2023-05-09T02:16:54.442Z,9.89
2023-05-09T02:19:39.451Z,9.92
2023-05-09T02:22:24.959Z,9.94
2023-05-09T02:25:11.884Z,9.86
2023-05-09T02:27:59.477Z,9.85
2023-05-09T02:30:47.338Z,9.86
2023-05-09T02:33:36.809Z,9.82
2023-05-09T02:36:22.987Z,9.82
2023-05-09T02:39:08.742Z,9.83
2023-05-09T02:41:54.065Z,9.80
2023-05-09T02:44:39.515Z,9.81
2023-05-09T02:47:25.659Z,9.78
2023-05-09T02:50:11.457Z,9.80
2023-05-09T02:52:57.681Z,9.79
2023-05-09T02:55:42.789Z,9.78
2023-05-09T02:58:28.211Z,9.75
2023-05-09T03:01:13.398Z,9.74
2023-05-09T03:03:58.861Z,9.72
2023-05-09T03:06:44.107Z,9.73
2023-05-09T03:09:29.241Z,9.70
2023-05-09T03:12:14.509Z,9.72
2023-05-09T03:15:01.123Z,9.66
2023-05-09T03:17:47.336Z,9.61
2023-05-09T03:20:32.684Z,9.65
2023-05-09T03:23:17.754Z,9.62
2023-05-09T03:26:03.029Z,9.62
2023-05-09T03:28:48.958Z,9.60
2023-05-09T03:31:34.589Z,9.56
2023-05-09T03:34:20.148Z,9.58
2023-05-09T03:37:05.846Z,9.57
2023-05-09T03:39:54.519Z,9.59
2023-05-09T03:42:40.478Z,9.59
2023-05-09T03:45:25.956Z,9.58
2023-05-09T03:48:12.125Z,9.56
2023-05-09T03:51:03.325Z,9.56
2023-05-09T03:53:51.349Z,9.56
2023-05-09T03:56:36.736Z,9.54
2023-05-09T03:59:22.587Z,9.51
2023-05-09T04:02:08.280Z,9.56
2023-05-09T04:04:53.634Z,9.53
2023-05-09T04:07:41.453Z,9.57
2023-05-09T04:10:28.523Z,9.57
2023-05-09T04:13:14.095Z,9.61
2023-05-09T04:15:59.967Z,9.65
2023-05-09T04:18:47.698Z,9.66
2023-05-09T04:21:33.823Z,9.68
2023-05-09T04:24:20.982Z,9.73
2023-05-09T04:27:07.876Z,9.75
2023-05-09T04:29:54.262Z,9.82
2023-05-09T04:32:39.649Z,9.90
2023-05-09T04:35:28.241Z,9.95
2023-05-09T04:38:13.647Z,9.99
2023-05-09T04:40:59.591Z,10.02
2023-05-09T04:43:45.155Z,10.03
2023-05-09T04:46:30.844Z,10.09
2023-05-09T04:49:16.561Z,10.10
2023-05-09T04:52:02.225Z,10.13
2023-05-09T04:54:47.356Z,10.14
2023-05-09T04:57:34.236Z,10.20
2023-05-09T05:00:20.321Z,10.23
2023-05-09T05:03:07.504Z,10.22
2023-05-09T05:05:53.134Z,10.23
2023-05-09T05:08:38.883Z,10.32
2023-05-09T05:11:24.231Z,10.39
2023-05-09T05:14:09.598Z,10.43
2023-05-09T05:16:55.159Z,10.47
2023-05-09T05:19:41.450Z,10.52
2023-05-09T05:22:27.247Z,10.57
2023-05-09T05:25:13.311Z,10.68
2023-05-09T05:28:00.212Z,10.81
2023-05-09T05:30:46.117Z,10.95
2023-05-09T05:33:31.686Z,11.08
2023-05-09T05:36:17.774Z,11.14
2023-05-09T05:39:02.895Z,11.20
2023-05-09T05:41:48.202Z,11.23
2023-05-09T05:44:34.132Z,11.25
2023-05-09T05:47:19.855Z,11.33
2023-05-09T05:50:11.914Z,11.50
2023-05-09T05:52:58.389Z,11.57
2023-05-09T05:55:45.856Z,11.72
2023-05-09T05:58:32.205Z,11.74
2023-05-09T06:01:18.224Z,11.81
2023-05-09T06:04:03.775Z,11.86
2023-05-09T06:06:51.329Z,11.89
2023-05-09T06:09:36.480Z,12.00
2023-05-09T06:12:21.561Z,12.00
2023-05-09T06:15:07.423Z,12.05
2023-05-09T06:17:57.343Z,12.09
2023-05-09T06:20:42.730Z,12.17
2023-05-09T06:23:28.165Z,12.20
2023-05-09T06:26:14.768Z,12.21
2023-05-09T06:28:59.852Z,12.20
2023-05-09T06:31:45.076Z,12.32
2023-05-09T06:34:30.514Z,12.38
2023-05-09T06:37:15.865Z,12.48
2023-05-09T06:40:01.000Z,12.52
2023-05-09T06:42:46.550Z,12.61
2023-05-09T06:45:31.468Z,12.81
2023-05-09T06:48:16.885Z,12.87
2023-05-09T06:51:02.188Z,12.80
2023-05-09T06:53:47.528Z,13.05
2023-05-09T06:56:33.119Z,12.99
2023-05-09T06:59:18.215Z,13.03
2023-05-09T07:02:03.562Z,13.20
2023-05-09T07:04:48.721Z,13.44
2023-05-09T07:07:33.746Z,13.43
2023-05-09T07:10:19.432Z,13.41
2023-05-09T07:13:05.226Z,13.50
2023-05-09T07:15:50.443Z,13.39
2023-05-09T07:18:35.613Z,13.45
2023-05-09T07:21:20.909Z,13.55
2023-05-09T07:24:06.656Z,13.60
2023-05-09T07:26:52.478Z,13.62
2023-05-09T07:29:38.440Z,13.86
2023-05-09T07:32:23.647Z,13.99
2023-05-09T07:35:09.412Z,14.03
2023-05-09T07:37:54.695Z,14.17
2023-05-09T07:40:39.890Z,14.34
2023-05-09T07:43:25.232Z,14.38
2023-05-09T07:46:10.611Z,14.18
2023-05-09T07:48:55.875Z,13.98
2023-05-09T07:51:41.354Z,13.97
2023-05-09T07:54:26.844Z,14.01
2023-05-09T07:57:12.220Z,13.96
2023-05-09T07:59:57.622Z,14.20
2023-05-09T08:02:42.936Z,14.23
2023-05-09T08:05:27.970Z,14.35
2023-05-09T08:08:13.292Z,14.40
2023-05-09T08:10:58.884Z,14.45
2023-05-09T08:13:44.456Z,14.70
2023-05-09T08:16:30.277Z,14.64
2023-05-09T08:19:15.824Z,14.78
2023-05-09T08:22:01.352Z,14.89
2023-05-09T08:24:47.212Z,14.69
2023-05-09T08:27:32.542Z,14.66
2023-05-09T08:30:18.218Z,14.77
2023-05-09T08:33:03.645Z,14.89
2023-05-09T08:35:56.212Z,14.75
2023-05-09T08:38:41.713Z,14.96
2023-05-09T08:41:28.094Z,15.02
2023-05-09T08:44:13.558Z,15.29
2023-05-09T08:47:00.975Z,15.32
2023-05-09T08:49:46.020Z,15.45
2023-05-09T08:52:33.442Z,15.27
2023-05-09T08:55:19.080Z,15.33
2023-05-09T08:58:05.425Z,15.41
2023-05-09T09:00:50.888Z,15.51
2023-05-09T09:03:37.935Z,15.57
2023-05-09T09:06:25.670Z,15.70
2023-05-09T09:09:13.702Z,15.93
2023-05-09T09:11:59.210Z,16.05
2023-05-09T09:14:50.282Z,16.20
2023-05-09T09:17:41.281Z,16.24
2023-05-09T09:20:29.953Z,16.30
2023-05-09T09:23:20.111Z,16.38
2023-05-09T09:26:05.322Z,16.53
2023-05-09T09:28:50.621Z,16.50
2023-05-09T09:31:35.890Z,16.56
2023-05-09T09:34:22.942Z,16.21
2023-05-09T09:37:08.242Z,16.09
2023-05-09T09:39:55.432Z,16.41
2023-05-09T09:42:45.929Z,16.38
2023-05-09T09:45:31.322Z,16.54
2023-05-09T09:48:16.670Z,16.60
2023-05-09T09:51:12.638Z,16.61
2023-05-09T09:54:02.260Z,16.72
2023-05-09T09:56:50.290Z,16.89
2023-05-09T09:59:35.816Z,16.78
2023-05-09T10:02:23.658Z,16.92
2023-05-09T10:05:09.303Z,16.95
2023-05-09T10:08:04.982Z,17.05
2023-05-09T10:10:50.386Z,17.06
2023-05-09T10:13:37.377Z,17.21
2023-05-09T10:16:35.731Z,17.21
2023-05-09T10:19:29.816Z,17.11
2023-05-09T10:22:17.950Z,17.12
2023-05-09T10:25:06.546Z,17.30
2023-05-09T10:27:54.296Z,17.41
2023-05-09T10:31:07.861Z,17.31
2023-05-09T10:33:59.243Z,17.30
2023-05-09T10:36:48.479Z,17.37
2023-05-09T10:39:34.096Z,17.19
2023-05-09T10:42:21.326Z,17.11
2023-05-09T10:45:11.046Z,17.45
2023-05-09T10:47:56.928Z,17.56
2023-05-09T10:50:43.489Z,17.61
2023-05-09T10:53:45.106Z,17.73
2023-05-09T10:56:35.723Z,17.88
2023-05-09T10:59:41.613Z,17.67
2023-05-09T11:02:30.779Z,17.76
2023-05-09T11:05:17.948Z,17.84
2023-05-09T11:08:23.265Z,17.83
2023-05-09T11:11:25.580Z,17.70
2023-05-09T11:14:48.776Z,17.82
2023-05-09T11:17:38.302Z,17.86
2023-05-09T11:20:28.347Z,17.84
2023-05-09T11:23:19.863Z,17.87
2023-05-09T11:26:07.763Z,17.88
2023-05-09T11:28:54.287Z,17.98
2023-05-09T11:32:05.610Z,18.07
2023-05-09T11:34:51.297Z,17.73
2023-05-09T11:37:46.225Z,17.81
2023-05-09T11:40:32.811Z,17.99
2023-05-09T11:43:18.527Z,18.02
2023-05-09T11:46:04.361Z,18.10
2023-05-09T11:48:49.504Z,18.15
2023-05-09T11:51:38.174Z,18.15
2023-05-09T11:54:23.742Z,18.20
2023-05-09T11:57:09.534Z,18.29
2023-05-09T11:59:55.471Z,18.22
2023-05-09T12:02:44.300Z,18.35
2023-05-09T12:05:29.627Z,18.49
2023-05-09T12:08:15.397Z,18.55
2023-05-09T12:11:10.614Z,18.53
2023-05-09T12:13:56.053Z,18.56
2023-05-09T12:16:47.817Z,18.58
2023-05-09T12:19:33.461Z,18.59
2023-05-09T12:22:29.533Z,18.62
2023-05-09T12:25:18.035Z,18.74
2023-05-09T12:28:12.766Z,18.73
2023-05-09T12:31:08.632Z,18.60
2023-05-09T12:33:54.761Z,18.79
2023-05-09T12:36:40.472Z,18.82
2023-05-09T12:39:26.726Z,18.57
2023-05-09T12:42:16.186Z,18.41
2023-05-09T12:45:02.706Z,18.56
2023-05-09T12:47:58.551Z,18.71
2023-05-09T12:50:47.255Z,18.74
2023-05-09T12:53:38.577Z,18.81
2023-05-09T12:56:24.283Z,18.78
2023-05-09T12:59:11.213Z,18.83
2023-05-09T13:01:58.802Z,18.75
2023-05-09T13:04:44.099Z,18.74
2023-05-09T13:07:29.555Z,18.76
2023-05-09T13:10:21.688Z,18.86
2023-05-09T13:13:07.039Z,18.86
2023-05-09T13:15:52.468Z,18.74
2023-05-09T13:18:37.844Z,18.77
2023-05-09T13:21:23.607Z,18.83
2023-05-09T13:24:09.093Z,18.85
2023-05-09T13:26:54.544Z,18.86
2023-05-09T13:29:43.356Z,18.89
2023-05-09T13:32:29.105Z,18.86
2023-05-09T13:35:15.524Z,18.84
2023-05-09T13:38:01.165Z,18.91
2023-05-09T13:40:46.385Z,18.88
2023-05-09T13:43:31.643Z,18.92
2023-05-09T13:46:17.208Z,19.01
2023-05-09T13:49:02.630Z,19.02
2023-05-09T13:51:47.710Z,19.06
2023-05-09T13:54:35.888Z,19.06
2023-05-09T13:57:21.448Z,19.11
2023-05-09T14:00:07.865Z,19.08
2023-05-09T14:02:57.950Z,19.13
2023-05-09T14:05:43.317Z,19.20
2023-05-09T14:08:28.528Z,19.25
2023-05-09T14:11:13.808Z,19.28
2023-05-09T14:13:59.127Z,19.33
2023-05-09T14:16:44.580Z,19.32
2023-05-09T14:19:32.596Z,19.34
2023-05-09T14:22:17.899Z,19.30
2023-05-09T14:25:03.565Z,19.23
2023-05-09T14:27:48.854Z,19.19
2023-05-09T14:30:34.321Z,19.21
2023-05-09T14:33:20.196Z,19.25
2023-05-09T14:39:38.175Z,19.30
2023-05-09T14:42:23.879Z,19.34
2023-05-09T14:45:12.093Z,19.42
2023-05-09T14:47:57.760Z,19.43
2023-05-09T14:50:43.008Z,19.40
2023-05-09T14:53:28.889Z,19.38
2023-05-09T14:56:16.725Z,19.42
2023-05-09T14:59:03.383Z,19.33
2023-05-09T15:01:50.815Z,19.27
2023-05-09T15:04:36.209Z,19.25
2023-05-09T15:07:21.457Z,19.18
2023-05-09T15:10:07.167Z,19.31
2023-05-09T15:12:52.768Z,19.31
2023-05-09T15:15:41.107Z,19.29
2023-05-09T15:18:28.596Z,19.19
2023-05-09T15:21:14.469Z,19.17
2023-05-09T15:24:00.060Z,19.17
2023-05-09T15:26:45.478Z,19.19
2023-05-09T15:29:30.562Z,19.25
2023-05-09T15:32:16.182Z,19.24
2023-05-09T15:35:01.492Z,19.25
2023-05-09T15:37:46.955Z,19.24
2023-05-09T15:40:32.153Z,19.24
2023-05-09T15:43:17.763Z,19.22
2023-05-09T15:46:03.639Z,19.20
2023-05-09T15:48:49.035Z,19.14
2023-05-09T15:51:34.166Z,19.08
2023-05-09T15:54:20.233Z,19.10
2023-05-09T15:57:06.812Z,19.03
2023-05-09T15:59:55.086Z,18.99
2023-05-09T16:02:41.991Z,19.01
2023-05-09T16:05:27.442Z,19.00
2023-05-09T16:08:13.047Z,18.97
2023-05-09T16:11:00.761Z,18.95
2023-05-09T16:13:46.597Z,18.91
2023-05-09T16:16:31.626Z,18.84
2023-05-09T16:19:18.222Z,18.84
2023-05-09T16:22:03.294Z,18.80
2023-05-09T16:24:49.117Z,18.78
2023-05-09T16:27:34.560Z,18.80
2023-05-09T16:30:19.765Z,18.83
2023-05-09T16:33:05.143Z,18.80
2023-05-09T16:35:50.608Z,18.77
2023-05-09T16:38:36.177Z,18.71
2023-05-09T16:41:22.073Z,18.63
2023-05-09T16:44:07.145Z,18.56
2023-05-09T16:46:53.189Z,18.53
2023-05-09T16:49:38.441Z,18.50
2023-05-09T16:52:24.055Z,18.45
2023-05-09T16:55:09.486Z,18.39
2023-05-09T16:57:54.564Z,18.37
2023-05-09T17:00:39.977Z,18.33
2023-05-09T17:03:25.173Z,18.31
2023-05-09T17:06:10.330Z,18.29
2023-05-09T17:08:55.450Z,18.28
2023-05-09T17:11:40.872Z,18.22
2023-05-09T17:14:26.812Z,18.21
2023-05-09T17:17:14.507Z,18.19
2023-05-09T17:20:01.160Z,18.14
2023-05-09T17:22:46.532Z,18.12
2023-05-09T17:25:31.914Z,18.09
2023-05-09T17:28:17.414Z,18.03
2023-05-09T17:31:03.285Z,17.97
2023-05-09T17:33:48.806Z,17.92
2023-05-09T17:36:34.015Z,17.88
2023-05-09T17:39:19.210Z,17.85
2023-05-09T17:42:05.202Z,17.82
2023-05-09T17:44:50.858Z,17.75
2023-05-09T17:47:37.379Z,17.71
2023-05-09T17:50:22.778Z,17.66
2023-05-09T17:53:09.388Z,17.61
2023-05-09T17:55:54.853Z,17.57
2023-05-09T17:58:39.950Z,17.50
2023-05-09T18:01:25.760Z,17.44
2023-05-09T18:04:10.826Z,17.40
2023-05-09T18:06:56.094Z,17.36
2023-05-09T18:09:41.911Z,17.30
2023-05-09T18:12:31.099Z,17.24
2023-05-09T18:15:16.046Z,17.19
2023-05-09T18:18:01.624Z,17.13
2023-05-09T18:20:47.353Z,17.09
2023-05-09T18:23:33.126Z,17.02
2023-05-09T18:26:18.405Z,16.97
2023-05-09T18:29:03.767Z,16.93
2023-05-09T18:31:49.078Z,16.88
2023-05-09T18:34:34.186Z,16.83
2023-05-09T18:37:19.630Z,16.81
2023-05-09T18:40:05.624Z,16.75
2023-05-09T18:42:50.756Z,16.68
2023-05-09T18:45:36.322Z,16.65
2023-05-09T18:48:21.610Z,16.62
2023-05-09T18:51:07.140Z,16.56
2023-05-09T18:53:52.496Z,16.52
2023-05-09T18:56:39.581Z,16.49
2023-05-09T18:59:25.041Z,16.42
2023-05-09T19:02:10.367Z,16.37
2023-05-09T19:04:55.870Z,16.33
2023-05-09T19:07:41.326Z,16.31
2023-05-09T19:10:26.580Z,16.23
2023-05-09T19:13:12.889Z,16.21
2023-05-09T19:16:00.132Z,16.17
2023-05-09T19:18:45.446Z,16.13
2023-05-09T19:21:30.724Z,16.08
2023-05-09T19:24:15.977Z,16.08
2023-05-09T19:27:01.526Z,16.02
2023-05-09T19:29:48.714Z,15.98
2023-05-09T19:32:35.072Z,15.94
2023-05-09T19:35:20.684Z,15.89
2023-05-09T19:38:05.767Z,15.85
2023-05-09T19:40:51.486Z,15.81
2023-05-09T19:43:36.646Z,15.76
2023-05-09T19:46:22.821Z,15.76
2023-05-09T19:49:12.523Z,15.71
2023-05-09T19:51:58.044Z,15.69
2023-05-09T19:54:43.373Z,15.63
2023-05-09T19:57:29.244Z,15.60
2023-05-09T20:00:14.869Z,15.62
2023-05-09T20:03:00.394Z,15.55
2023-05-09T20:05:45.474Z,15.55
2023-05-09T20:08:31.068Z,15.52
2023-05-09T20:11:16.549Z,15.49
2023-05-09T20:14:01.701Z,15.44
2023-05-09T20:16:47.050Z,15.42
2023-05-09T20:19:33.158Z,15.35
2023-05-09T20:22:18.452Z,15.30
2023-05-09T20:25:04.037Z,15.28
2023-05-09T20:27:49.291Z,15.24
2023-05-09T20:30:34.770Z,15.19
2023-05-09T20:33:19.814Z,15.14
2023-05-09T20:36:06.421Z,15.12
2023-05-09T20:38:52.059Z,15.08
2023-05-09T20:41:37.544Z,15.07
2023-05-09T20:44:23.240Z,15.03
2023-05-09T20:47:08.336Z,14.97
2023-05-09T20:49:53.432Z,14.95
2023-05-09T20:52:38.903Z,14.90
2023-05-09T20:55:24.571Z,14.87
2023-05-09T20:58:09.728Z,14.82
2023-05-09T21:00:55.284Z,14.81
2023-05-09T21:03:40.951Z,14.75
2023-05-09T21:06:26.484Z,14.73
2023-05-09T21:09:11.599Z,14.71
2023-05-09T21:11:57.015Z,14.67
2023-05-09T21:14:42.262Z,14.62
2023-05-09T21:17:27.413Z,14.60
2023-05-09T21:20:13.174Z,14.59
2023-05-09T21:22:58.705Z,14.50
2023-05-09T21:25:44.224Z,14.49
2023-05-09T21:28:29.893Z,14.45
2023-05-09T21:31:15.167Z,14.41
2023-05-09T21:34:00.714Z,14.42
2023-05-09T21:36:45.723Z,14.38
2023-05-09T21:39:32.488Z,14.37
2023-05-09T21:42:18.476Z,14.35
2023-05-09T21:45:04.419Z,14.31
2023-05-09T21:47:50.043Z,14.28
2023-05-09T21:50:35.260Z,14.25
2023-05-09T21:53:20.621Z,14.21
2023-05-09T21:56:05.972Z,14.20
2023-05-09T21:58:51.180Z,14.16
2023-05-09T22:01:36.804Z,14.13
2023-05-09T22:04:21.990Z,14.10
2023-05-09T22:07:07.706Z,14.07
2023-05-09T22:09:53.202Z,14.03
2023-05-09T22:12:38.273Z,14.00
2023-05-09T22:15:23.748Z,14.01
2023-05-09T22:18:08.873Z,13.99
2023-05-09T22:20:54.034Z,13.96
2023-05-09T22:23:39.290Z,13.94
2023-05-09T22:26:25.988Z,13.92
2023-05-09T22:29:11.050Z,13.88
2023-05-09T22:31:56.360Z,13.86
2023-05-09T22:34:41.709Z,13.85
2023-05-09T22:37:26.804Z,13.84
2023-05-09T22:40:12.342Z,13.79
2023-05-09T22:42:57.407Z,13.77
2023-05-09T22:45:43.757Z,13.73
2023-05-09T22:48:29.045Z,13.75
2023-05-09T22:51:14.966Z,13.69
2023-05-09T22:54:00.914Z,13.70
2023-05-09T22:56:47.276Z,13.70
2023-05-09T22:59:32.898Z,13.66
2023-05-09T23:02:18.374Z,13.63
2023-05-09T23:05:03.948Z,13.59
2023-05-09T23:07:49.155Z,13.55
2023-05-09T23:10:34.532Z,13.55
2023-05-09T23:13:19.959Z,13.54
2023-05-09T23:16:05.500Z,13.52
2023-05-09T23:18:50.762Z,13.47
2023-05-09T23:21:36.057Z,13.44
2023-05-09T23:24:21.329Z,13.42
2023-05-09T23:27:06.843Z,13.40
2023-05-09T23:29:51.993Z,13.39
2023-05-09T23:32:37.427Z,13.38
2023-05-09T23:35:22.568Z,13.31
2023-05-09T23:38:08.032Z,13.28
2023-05-09T23:40:54.232Z,13.25
2023-05-09T23:43:39.449Z,13.20
2023-05-09T23:46:24.745Z,13.18
2023-05-09T23:49:09.962Z,13.15
2023-05-09T23:51:55.286Z,13.15
2023-05-09T23:54:40.492Z,13.12
2023-05-09T23:57:26.306Z,13.10
